Time,TemperatureF,DewpointF,PressureIn,WindDirection,WindDirectionDegrees,WindSpeedMPH,WindSpeedGustMPH,Humidity,HourlyPrecipIn,Conditions,Clouds,dailyrainin,SoftwareType,DateUTC
2013-07-20 00:01:00,73.1,70.3,29.81,South,190,0.0,-999.0,91,0.00,,,0.00,Wunderground v.1.15,2013-07-20 04:01:00,
2013-07-20 00:03:00,73.1,70.3,29.81,South,190,0.0,-999.0,91,0.00,,,0.00,Wunderground v.1.15,2013-07-20 04:03:00,
2013-07-20 00:05:00,73.1,70.3,29.81,South,190,0.0,-999.0,91,0.00,,,0.00,Wunderground v.1.15,2013-07-20 04:05:00,
2013-07-20 00:07:00,73.1,70.3,29.81,South,190,0.0,-999.0,91,0.00,,,0.00,Wunderground v.1.15,2013-07-20 04:07:00,
2013-07-20 00:13:00,73.0,70.2,29.81,South,190,0.0,-999.0,91,0.00,,,0.00,Wunderground v.1.15,2013-07-20 04:13:00,
2013-07-20 00:19:00,72.9,70.1,29.82,South,190,0.0,-999.0,91,0.00,,,0.00,Wunderground v.1.15,2013-07-20 04:19:00,
2013-07-20 00:25:00,72.8,70.3,29.81,South,190,0.0,-999.0,92,0.00,,,0.00,Wunderground v.1.15,2013-07-20 04:25:00,
2013-07-20 00:31:00,72.8,70.3,29.81,South,190,0.0,-999.0,92,0.00,,,0.00,Wunderground v.1.15,2013-07-20 04:31:00,
2013-07-20 00:37:00,72.7,70.2,29.81,South,190,0.0,-999.0,92,0.00,,,0.00,Wunderground v.1.15,2013-07-20 04:37:00,
2013-07-20 00:42:00,72.7,70.2,29.80,South,190,0.0,-999.0,92,0.00,,,0.00,Wunderground v.1.15,2013-07-20 04:42:00,
2013-07-20 00:48:00,72.7,70.2,29.81,South,171,1.0,-999.0,92,0.00,,,0.00,Wunderground v.1.15,2013-07-20 04:48:00,
2013-07-20 00:54:00,72.7,70.2,29.80,South,169,2.0,-999.0,92,0.00,,,0.00,Wunderground v.1.15,2013-07-20 04:54:00,
2013-07-20 01:00:00,72.7,70.2,29.80,SSW,198,2.0,-999.0,92,0.00,,,0.00,Wunderground v.1.15,2013-07-20 05:00:00,
2013-07-20 01:05:00,72.7,70.2,29.81,SSW,198,2.0,-999.0,92,0.00,,,0.00,Wunderground v.1.15,2013-07-20 05:05:00,
2013-07-20 01:11:00,72.6,70.1,29.81,South,181,1.0,-999.0,92,0.00,,,0.00,Wunderground v.1.15,2013-07-20 05:11:00,
2013-07-20 01:17:00,72.5,70.0,29.80,South,181,1.0,-999.0,92,0.00,,,0.00,Wunderground v.1.15,2013-07-20 05:17:00,
2013-07-20 01:23:00,72.4,69.9,29.80,South,184,1.0,-999.0,92,0.00,,,0.00,Wunderground v.1.15,2013-07-20 05:23:00,
2013-07-20 01:29:00,72.4,69.9,29.79,SSE,159,1.0,-999.0,92,0.00,,,0.00,Wunderground v.1.15,2013-07-20 05:29:00,
2013-07-20 01:35:00,72.3,69.8,29.79,South,184,2.0,-999.0,92,0.00,,,0.00,Wunderground v.1.15,2013-07-20 05:35:00,
2013-07-20 01:41:00,72.2,69.7,29.79,South,183,2.0,-999.0,92,0.00,,,0.00,Wunderground v.1.15,2013-07-20 05:41:00,
2013-07-20 01:47:00,72.2,69.7,29.79,South,186,2.0,-999.0,92,0.00,,,0.00,Wunderground v.1.15,2013-07-20 05:47:00,
2013-07-20 01:53:00,72.1,69.6,29.78,South,186,1.0,-999.0,92,0.00,,,0.00,Wunderground v.1.15,2013-07-20 05:53:00,
2013-07-20 01:58:00,72.0,69.5,29.78,South,186,0.0,-999.0,92,0.00,,,0.00,Wunderground v.1.15,2013-07-20 05:58:00,
2013-07-20 02:04:00,71.9,69.4,29.78,South,186,0.0,-999.0,92,0.00,,,0.00,Wunderground v.1.15,2013-07-20 06:04:00,
2013-07-20 02:10:00,71.8,69.3,29.77,South,186,0.0,-999.0,92,0.00,,,0.00,Wunderground v.1.15,2013-07-20 06:10:00,
2013-07-20 02:16:00,71.8,69.7,29.77,South,186,0.0,-999.0,93,0.00,,,0.00,Wunderground v.1.15,2013-07-20 06:16:00,
2013-07-20 02:22:00,71.7,69.6,29.77,South,186,1.0,-999.0,93,0.00,,,0.00,Wunderground v.1.15,2013-07-20 06:22:00,
2013-07-20 02:28:00,71.7,69.6,29.76,South,182,1.0,-999.0,93,0.00,,,0.00,Wunderground v.1.15,2013-07-20 06:28:00,
2013-07-20 02:34:00,71.7,69.6,29.76,South,182,1.0,-999.0,93,0.00,,,0.00,Wunderground v.1.15,2013-07-20 06:34:00,
2013-07-20 02:40:00,71.7,69.6,29.76,South,182,0.0,-999.0,93,0.00,,,0.00,Wunderground v.1.15,2013-07-20 06:40:00,
2013-07-20 02:45:00,71.7,69.6,29.76,South,182,0.0,-999.0,93,0.00,,,0.00,Wunderground v.1.15,2013-07-20 06:45:00,
2013-07-20 02:50:00,71.7,69.6,29.76,SSW,192,0.0,-999.0,93,0.00,,,0.00,Wunderground v.1.15,2013-07-20 06:50:00,
2013-07-20 02:56:00,71.8,69.7,29.76,SSW,192,1.0,-999.0,93,0.00,,,0.00,Wunderground v.1.15,2013-07-20 06:56:00,
2013-07-20 03:02:00,71.8,69.7,29.76,South,173,2.0,-999.0,93,0.00,,,0.00,Wunderground v.1.15,2013-07-20 07:02:00,
2013-07-20 03:08:00,71.8,69.3,29.75,SSW,192,3.0,-999.0,92,0.00,,,0.00,Wunderground v.1.15,2013-07-20 07:08:00,
2013-07-20 03:14:00,71.9,69.4,29.74,South,173,2.0,-999.0,92,0.00,,,0.00,Wunderground v.1.15,2013-07-20 07:14:00,
2013-07-20 03:20:00,72.0,69.9,29.75,SSW,197,2.0,-999.0,93,0.00,,,0.00,Wunderground v.1.15,2013-07-20 07:20:00,
2013-07-20 03:25:00,72.1,69.6,29.75,SSW,203,1.0,-999.0,92,0.00,,,0.00,Wunderground v.1.15,2013-07-20 07:25:00,
2013-07-20 03:31:00,72.1,69.6,29.75,SSW,203,0.0,-999.0,92,0.00,,,0.00,Wunderground v.1.15,2013-07-20 07:31:00,
2013-07-20 03:37:00,72.1,69.6,29.75,SSW,203,0.0,-999.0,92,0.00,,,0.00,Wunderground v.1.15,2013-07-20 07:37:00,
2013-07-20 03:43:00,72.1,69.6,29.75,SSW,203,0.0,-999.0,92,0.00,,,0.00,Wunderground v.1.15,2013-07-20 07:43:00,
2013-07-20 03:49:00,72.0,69.5,29.75,SSW,203,0.0,-999.0,92,0.00,,,0.00,Wunderground v.1.15,2013-07-20 07:49:00,
2013-07-20 03:54:00,72.1,70.0,29.75,SSW,203,0.0,-999.0,93,0.00,,,0.00,Wunderground v.1.15,2013-07-20 07:54:00,
2013-07-20 04:00:00,72.3,70.2,29.76,SSW,204,1.0,-999.0,93,0.00,,,0.00,Wunderground v.1.15,2013-07-20 08:00:00,
2013-07-20 04:06:00,72.5,70.4,29.76,SSW,209,0.0,-999.0,93,0.00,,,0.00,Wunderground v.1.15,2013-07-20 08:06:00,
2013-07-20 04:12:00,72.6,70.5,29.76,SSW,209,0.0,-999.0,93,0.00,,,0.00,Wunderground v.1.15,2013-07-20 08:12:00,
2013-07-20 04:18:00,72.7,70.2,29.76,SSW,209,0.0,-999.0,92,0.00,,,0.00,Wunderground v.1.15,2013-07-20 08:18:00,
2013-07-20 04:24:00,72.7,70.2,29.76,SSW,209,0.0,-999.0,92,0.00,,,0.00,Wunderground v.1.15,2013-07-20 08:24:00,
2013-07-20 04:29:00,72.7,70.2,29.76,SSW,196,0.0,-999.0,92,0.00,,,0.00,Wunderground v.1.15,2013-07-20 08:29:00,
2013-07-20 04:35:00,72.6,70.1,29.76,SSW,196,0.0,-999.0,92,0.00,,,0.00,Wunderground v.1.15,2013-07-20 08:35:00,
2013-07-20 04:41:00,72.6,70.1,29.76,SSW,196,0.0,-999.0,92,0.00,,,0.00,Wunderground v.1.15,2013-07-20 08:41:00,
2013-07-20 04:47:00,72.5,70.0,29.76,SSW,196,0.0,-999.0,92,0.00,,,0.00,Wunderground v.1.15,2013-07-20 08:47:00,
2013-07-20 04:53:00,72.4,69.9,29.76,SSW,196,0.0,-999.0,92,0.00,,,0.00,Wunderground v.1.15,2013-07-20 08:53:00,
2013-07-20 04:59:00,72.4,70.3,29.76,South,186,0.0,-999.0,93,0.00,,,0.00,Wunderground v.1.15,2013-07-20 08:59:00,
2013-07-20 05:05:00,72.3,70.2,29.76,South,186,0.0,-999.0,93,0.00,,,0.00,Wunderground v.1.15,2013-07-20 09:05:00,
2013-07-20 05:10:00,72.4,70.3,29.76,SSW,192,0.0,-999.0,93,0.00,,,0.00,Wunderground v.1.15,2013-07-20 09:10:00,
2013-07-20 05:16:00,72.4,70.3,29.77,SSW,192,0.0,-999.0,93,0.00,,,0.00,Wunderground v.1.15,2013-07-20 09:16:00,
2013-07-20 05:22:00,72.3,70.2,29.76,SSW,192,0.0,-999.0,93,0.00,,,0.00,Wunderground v.1.15,2013-07-20 09:22:00,
2013-07-20 05:28:00,72.2,70.1,29.76,SSW,192,0.0,-999.0,93,0.00,,,0.00,Wunderground v.1.15,2013-07-20 09:28:00,
2013-07-20 05:34:00,72.1,70.0,29.76,SSW,192,1.0,-999.0,93,0.00,,,0.00,Wunderground v.1.15,2013-07-20 09:34:00,
2013-07-20 05:40:00,72.2,70.1,29.76,South,188,2.0,-999.0,93,0.00,,,0.00,Wunderground v.1.15,2013-07-20 09:40:00,
2013-07-20 05:46:00,72.3,70.5,29.76,South,187,2.0,-999.0,94,0.00,,,0.00,Wunderground v.1.15,2013-07-20 09:46:00,
2013-07-20 05:51:00,72.2,70.1,29.76,South,182,2.0,-999.0,93,0.00,,,0.00,Wunderground v.1.15,2013-07-20 09:51:00,
2013-07-20 05:57:00,72.2,70.4,29.77,South,182,1.0,-999.0,94,0.00,,,0.00,Wunderground v.1.15,2013-07-20 09:57:00,
2013-07-20 06:03:00,72.2,70.4,29.77,South,182,0.0,-999.0,94,0.00,,,0.00,Wunderground v.1.15,2013-07-20 10:03:00,
2013-07-20 06:09:00,72.3,70.5,29.79,NNE,20,0.0,-999.0,94,0.00,,,0.00,Wunderground v.1.15,2013-07-20 10:09:00,
2013-07-20 06:15:00,72.4,70.6,29.79,NNE,15,1.0,-999.0,94,0.00,,,0.00,Wunderground v.1.15,2013-07-20 10:15:00,
2013-07-20 06:21:00,72.3,70.5,29.79,NNE,15,0.0,-999.0,94,0.00,,,0.00,Wunderground v.1.15,2013-07-20 10:21:00,
2013-07-20 06:27:00,72.2,70.4,29.80,NNE,15,0.0,-999.0,94,0.00,,,0.01,Wunderground v.1.15,2013-07-20 10:27:00,
2013-07-20 06:32:00,72.3,70.5,29.80,NNE,15,0.0,-999.0,94,0.12,,,0.02,Wunderground v.1.15,2013-07-20 10:32:00,
2013-07-20 06:38:00,72.2,70.4,29.80,NNE,15,0.0,-999.0,94,0.06,,,0.02,Wunderground v.1.15,2013-07-20 10:38:00,
2013-07-20 06:44:00,72.1,70.3,29.80,NNE,15,0.0,-999.0,94,0.04,,,0.02,Wunderground v.1.15,2013-07-20 10:44:00,
2013-07-20 06:50:00,72.0,69.9,29.80,NNE,15,0.0,-999.0,93,0.00,,,0.02,Wunderground v.1.15,2013-07-20 10:50:00,
2013-07-20 06:56:00,71.8,69.7,29.79,NNE,15,0.0,-999.0,93,0.00,,,0.02,Wunderground v.1.15,2013-07-20 10:56:00,
2013-07-20 07:02:00,71.9,69.8,29.79,NNE,15,0.0,-999.0,93,0.00,,,0.02,Wunderground v.1.15,2013-07-20 11:02:00,
2013-07-20 07:08:00,71.9,69.8,29.79,NNE,15,0.0,-999.0,93,0.00,,,0.02,Wunderground v.1.15,2013-07-20 11:08:00,
2013-07-20 07:14:00,72.0,69.9,29.79,NNE,15,0.0,-999.0,93,0.00,,,0.02,Wunderground v.1.15,2013-07-20 11:14:00,
2013-07-20 07:19:00,72.1,70.0,29.80,NNE,15,0.0,-999.0,93,0.00,,,0.02,Wunderground v.1.15,2013-07-20 11:19:00,
2013-07-20 07:25:00,72.0,69.9,29.81,NNE,15,0.0,-999.0,93,0.00,,,0.02,Wunderground v.1.15,2013-07-20 11:25:00,
2013-07-20 07:31:00,72.2,70.1,29.82,NNE,15,0.0,-999.0,93,0.00,,,0.02,Wunderground v.1.15,2013-07-20 11:31:00,
2013-07-20 07:37:00,72.4,69.9,29.82,NNE,15,0.0,-999.0,92,0.00,,,0.02,Wunderground v.1.15,2013-07-20 11:37:00,
2013-07-20 07:43:00,72.4,69.9,29.83,NNE,15,0.0,-999.0,92,0.00,,,0.02,Wunderground v.1.15,2013-07-20 11:43:00,
2013-07-20 07:49:00,72.2,69.7,29.83,North,5,0.0,-999.0,92,0.00,,,0.02,Wunderground v.1.15,2013-07-20 11:49:00,
2013-07-20 07:55:00,72.0,69.2,29.84,NNW,335,0.0,-999.0,91,0.00,,,0.02,Wunderground v.1.15,2013-07-20 11:55:00,
2013-07-20 08:01:00,71.8,69.0,29.84,North,5,0.0,-999.0,91,0.00,,,0.02,Wunderground v.1.15,2013-07-20 12:01:00,
2013-07-20 08:07:00,71.5,68.4,29.83,North,5,0.0,-999.0,90,0.33,,,0.06,Wunderground v.1.15,2013-07-20 12:07:00,
2013-07-20 08:13:00,71.2,68.4,29.81,North,5,0.0,-999.0,91,0.20,,,0.10,Wunderground v.1.15,2013-07-20 12:13:00,
2013-07-20 08:18:00,70.9,68.1,29.82,North,5,0.0,-999.0,91,0.07,,,0.10,Wunderground v.1.15,2013-07-20 12:18:00,
2013-07-20 08:24:00,70.6,68.2,29.82,NNE,13,0.0,-999.0,92,0.04,,,0.10,Wunderground v.1.15,2013-07-20 12:24:00,
2013-07-20 08:30:00,70.6,68.2,29.82,NNE,13,0.0,-999.0,92,0.00,,,0.10,Wunderground v.1.15,2013-07-20 12:30:00,
2013-07-20 08:36:00,70.7,68.6,29.82,NNE,13,0.0,-999.0,93,0.00,,,0.10,Wunderground v.1.15,2013-07-20 12:36:00,
2013-07-20 08:42:00,71.2,69.1,29.81,NNE,14,0.0,-999.0,93,0.00,,,0.10,Wunderground v.1.15,2013-07-20 12:42:00,
2013-07-20 08:48:00,71.2,69.1,29.81,South,188,1.0,-999.0,93,0.00,,,0.10,Wunderground v.1.15,2013-07-20 12:48:00,
2013-07-20 08:54:00,71.1,68.7,29.81,South,188,1.0,-999.0,92,0.00,,,0.10,Wunderground v.1.15,2013-07-20 12:54:00,
2013-07-20 09:00:00,71.2,68.8,29.81,South,188,0.0,-999.0,92,0.00,,,0.10,Wunderground v.1.15,2013-07-20 13:00:00,
2013-07-20 09:06:00,71.4,69.0,29.81,South,188,0.0,-999.0,92,0.00,,,0.10,Wunderground v.1.15,2013-07-20 13:06:00,
2013-07-20 09:11:00,71.6,68.8,29.82,South,188,0.0,-999.0,91,0.00,,,0.10,Wunderground v.1.15,2013-07-20 13:11:00,
2013-07-20 09:17:00,71.8,69.0,29.82,South,188,0.0,-999.0,91,0.00,,,0.10,Wunderground v.1.15,2013-07-20 13:17:00,
2013-07-20 09:23:00,72.1,69.0,29.82,South,188,0.0,-999.0,90,0.00,,,0.10,Wunderground v.1.15,2013-07-20 13:23:00,
2013-07-20 09:29:00,72.2,69.1,29.82,SSW,192,0.0,-999.0,90,0.00,,,0.10,Wunderground v.1.15,2013-07-20 13:29:00,
2013-07-20 09:35:00,72.5,69.4,29.83,SSW,193,0.0,-999.0,90,0.00,,,0.10,Wunderground v.1.15,2013-07-20 13:35:00,
2013-07-20 09:41:00,72.9,69.8,29.83,SSW,196,0.0,-999.0,90,0.00,,,0.10,Wunderground v.1.15,2013-07-20 13:41:00,
2013-07-20 09:47:00,73.3,69.9,29.82,SSW,196,0.0,-999.0,89,0.00,,,0.10,Wunderground v.1.15,2013-07-20 13:47:00,
2013-07-20 09:53:00,74.0,70.9,29.82,SSW,196,0.0,-999.0,90,0.00,,,0.10,Wunderground v.1.15,2013-07-20 13:53:00,
2013-07-20 09:59:00,74.3,70.2,29.81,SSW,198,0.0,-999.0,87,0.00,,,0.10,Wunderground v.1.15,2013-07-20 13:59:00,
2013-07-20 10:05:00,74.9,70.8,29.81,SSW,198,0.0,-999.0,87,0.00,,,0.10,Wunderground v.1.15,2013-07-20 14:05:00,
2013-07-20 10:11:00,75.4,70.6,29.82,SSW,198,0.0,-999.0,85,0.00,,,0.10,Wunderground v.1.15,2013-07-20 14:11:00,
2013-07-20 10:17:00,75.9,71.1,29.81,SSW,198,0.0,-999.0,85,0.00,,,0.10,Wunderground v.1.15,2013-07-20 14:17:00,
2013-07-20 10:23:00,76.3,71.1,29.81,SSW,198,0.0,-999.0,84,0.00,,,0.10,Wunderground v.1.15,2013-07-20 14:23:00,
2013-07-20 10:29:00,76.6,70.7,29.82,SSW,202,0.0,-999.0,82,0.00,,,0.10,Wunderground v.1.15,2013-07-20 14:29:00,
2013-07-20 10:35:00,76.9,71.0,29.81,SSW,202,0.0,-999.0,82,0.00,,,0.10,Wunderground v.1.15,2013-07-20 14:35:00,
2013-07-20 10:41:00,76.9,70.3,29.81,SSW,202,0.0,-999.0,80,0.00,,,0.10,Wunderground v.1.15,2013-07-20 14:41:00,
2013-07-20 10:47:00,76.9,70.6,29.81,SSW,202,1.0,-999.0,81,0.00,,,0.10,Wunderground v.1.15,2013-07-20 14:47:00,
2013-07-20 10:53:00,76.9,71.0,29.81,SSW,202,1.0,-999.0,82,0.00,,,0.10,Wunderground v.1.15,2013-07-20 14:53:00,
2013-07-20 10:59:00,77.4,71.8,29.81,SSW,202,0.0,-999.0,83,0.00,,,0.10,Wunderground v.1.15,2013-07-20 14:59:00,
2013-07-20 11:05:00,77.9,70.5,29.80,SSW,208,1.0,-999.0,78,0.00,,,0.10,Wunderground v.1.15,2013-07-20 15:05:00,
2013-07-20 11:11:00,78.0,71.3,29.81,SSW,200,1.0,-999.0,80,0.00,,,0.10,Wunderground v.1.15,2013-07-20 15:11:00,
2013-07-20 11:17:00,78.4,71.7,29.81,South,184,2.0,-999.0,80,0.00,,,0.10,Wunderground v.1.15,2013-07-20 15:17:00,
2013-07-20 11:23:00,79.1,72.4,29.82,SSW,201,4.0,-999.0,80,0.00,,,0.10,Wunderground v.1.15,2013-07-20 15:23:00,
2013-07-20 11:28:00,79.4,71.6,29.81,SSW,202,4.0,-999.0,77,0.00,,,0.10,Wunderground v.1.15,2013-07-20 15:28:00,
2013-07-20 11:34:00,79.6,72.1,29.81,SW,223,4.0,-999.0,78,0.00,,,0.10,Wunderground v.1.15,2013-07-20 15:34:00,
2013-07-20 11:40:00,80.1,71.1,29.82,WNW,298,3.0,-999.0,74,0.00,,,0.10,Wunderground v.1.15,2013-07-20 15:40:00,
2013-07-20 11:46:00,79.8,70.4,29.82,SW,228,2.0,-999.0,73,0.00,,,0.10,Wunderground v.1.15,2013-07-20 15:46:00,
2013-07-20 11:52:00,78.9,70.3,29.81,SW,225,3.0,-999.0,75,0.00,,,0.10,Wunderground v.1.15,2013-07-20 15:52:00,
2013-07-20 11:58:00,77.9,70.9,29.80,SSW,196,2.0,-999.0,79,0.00,,,0.10,Wunderground v.1.15,2013-07-20 15:58:00,
2013-07-20 12:04:00,77.3,72.1,29.79,SSW,205,2.0,-999.0,84,0.00,,,0.11,Wunderground v.1.15,2013-07-20 16:04:00,
2013-07-20 12:10:00,77.5,71.9,29.79,SW,222,4.0,-999.0,83,0.00,,,0.11,Wunderground v.1.15,2013-07-20 16:10:00,
2013-07-20 12:15:00,77.3,72.1,29.78,SSW,211,4.0,-999.0,84,0.00,,,0.11,Wunderground v.1.15,2013-07-20 16:15:00,
2013-07-20 12:21:00,77.5,71.6,29.78,SW,216,4.0,-999.0,82,0.00,,,0.11,Wunderground v.1.15,2013-07-20 16:21:00,
2013-07-20 12:27:00,77.8,71.9,29.80,WSW,248,2.0,-999.0,82,0.00,,,0.11,Wunderground v.1.15,2013-07-20 16:27:00,
2013-07-20 12:33:00,77.6,71.3,29.80,WNW,298,2.0,-999.0,81,0.00,,,0.11,Wunderground v.1.15,2013-07-20 16:33:00,
2013-07-20 12:39:00,77.3,70.6,29.79,SW,236,1.0,-999.0,80,0.00,,,0.11,Wunderground v.1.15,2013-07-20 16:39:00,
2013-07-20 12:45:00,76.7,70.4,29.78,SW,215,2.0,-999.0,81,0.00,,,0.11,Wunderground v.1.15,2013-07-20 16:45:00,
2013-07-20 12:51:00,76.0,70.5,29.75,SSW,197,3.0,-999.0,83,0.00,,,0.12,Wunderground v.1.15,2013-07-20 16:51:00,
2013-07-20 12:57:00,75.4,70.9,29.75,SSW,201,3.0,-999.0,86,0.07,,,0.13,Wunderground v.1.15,2013-07-20 16:57:00,
2013-07-20 13:02:00,74.9,71.1,29.76,South,188,4.0,-999.0,88,0.07,,,0.13,Wunderground v.1.15,2013-07-20 17:02:00,
2013-07-20 13:08:00,74.6,71.1,29.75,South,184,5.0,-999.0,89,0.06,,,0.14,Wunderground v.1.15,2013-07-20 17:08:00,
2013-07-20 13:14:00,74.4,70.9,29.76,SSW,213,5.0,-999.0,89,0.06,,,0.14,Wunderground v.1.15,2013-07-20 17:14:00,
2013-07-20 13:20:00,74.2,71.1,29.77,SSW,194,5.0,-999.0,90,0.04,,,0.14,Wunderground v.1.15,2013-07-20 17:20:00,
2013-07-20 13:26:00,74.2,71.1,29.77,SSW,200,4.0,-999.0,90,0.00,,,0.14,Wunderground v.1.15,2013-07-20 17:26:00,
2013-07-20 13:32:00,74.4,71.3,29.77,SW,222,5.0,-999.0,90,0.00,,,0.14,Wunderground v.1.15,2013-07-20 17:32:00,
2013-07-20 13:38:00,75.0,72.2,29.77,SSW,198,6.0,-999.0,91,0.00,,,0.14,Wunderground v.1.15,2013-07-20 17:38:00,
2013-07-20 13:44:00,75.8,72.7,29.77,SSW,198,6.0,-999.0,90,0.00,,,0.14,Wunderground v.1.15,2013-07-20 17:44:00,
2013-07-20 13:49:00,76.4,72.6,29.77,SW,221,7.0,-999.0,88,0.00,,,0.14,Wunderground v.1.15,2013-07-20 17:49:00,
2013-07-20 13:55:00,76.2,72.0,29.77,SSW,202,7.0,-999.0,87,0.00,,,0.14,Wunderground v.1.15,2013-07-20 17:55:00,
2013-07-20 14:01:00,76.4,71.9,29.77,SW,232,5.0,-999.0,86,0.00,,,0.14,Wunderground v.1.15,2013-07-20 18:01:00,
2013-07-20 14:07:00,76.6,72.1,29.77,SSW,212,4.0,-999.0,86,0.00,,,0.14,Wunderground v.1.15,2013-07-20 18:07:00,
2013-07-20 14:13:00,77.0,71.8,29.77,SW,223,5.0,-999.0,84,0.00,,,0.14,Wunderground v.1.15,2013-07-20 18:13:00,
2013-07-20 14:19:00,77.5,72.6,29.77,South,181,4.0,-999.0,85,0.00,,,0.14,Wunderground v.1.15,2013-07-20 18:19:00,
2013-07-20 14:25:00,77.9,72.3,29.78,SSW,206,5.0,-999.0,83,0.00,,,0.14,Wunderground v.1.15,2013-07-20 18:25:00,
2013-07-20 14:31:00,77.8,72.6,29.78,SSW,198,4.0,-999.0,84,0.00,,,0.14,Wunderground v.1.15,2013-07-20 18:31:00,
2013-07-20 14:37:00,77.6,72.0,29.78,SSW,198,3.0,-999.0,83,0.00,,,0.14,Wunderground v.1.15,2013-07-20 18:37:00,
2013-07-20 14:43:00,77.5,71.9,29.78,SSW,203,5.0,-999.0,83,0.00,,,0.14,Wunderground v.1.15,2013-07-20 18:43:00,
2013-07-20 14:48:00,77.4,71.8,29.77,South,175,5.0,-999.0,83,0.00,,,0.14,Wunderground v.1.15,2013-07-20 18:48:00,
2013-07-20 14:54:00,77.4,71.8,29.76,SW,217,5.0,-999.0,83,0.00,,,0.14,Wunderground v.1.15,2013-07-20 18:54:00,
2013-07-20 14:59:00,77.5,71.9,29.75,South,175,5.0,-999.0,83,0.00,,,0.14,Wunderground v.1.15,2013-07-20 18:59:00,
2013-07-20 15:05:00,77.4,71.8,29.75,SSW,213,6.0,-999.0,83,0.00,,,0.14,Wunderground v.1.15,2013-07-20 19:05:00,
2013-07-20 15:11:00,77.1,71.2,29.75,SSW,207,5.0,-999.0,82,0.00,,,0.14,Wunderground v.1.15,2013-07-20 19:11:00,
2013-07-20 15:17:00,77.1,71.2,29.77,NW,306,2.0,-999.0,82,0.00,,,0.14,Wunderground v.1.15,2013-07-20 19:17:00,
2013-07-20 15:22:00,77.0,70.7,29.78,NW,315,0.0,-999.0,81,0.00,,,0.14,Wunderground v.1.15,2013-07-20 19:22:00,
2013-07-20 15:28:00,76.8,70.9,29.79,NW,304,1.0,-999.0,82,0.00,,,0.14,Wunderground v.1.15,2013-07-20 19:28:00,
2013-07-20 15:34:00,76.6,71.4,29.79,NW,304,1.0,-999.0,84,0.00,,,0.14,Wunderground v.1.15,2013-07-20 19:34:00,
2013-07-20 15:40:00,76.6,72.1,29.78,SSW,199,1.0,-999.0,86,0.00,,,0.14,Wunderground v.1.15,2013-07-20 19:40:00,
2013-07-20 15:46:00,76.9,71.7,29.78,SSW,203,2.0,-999.0,84,0.00,,,0.14,Wunderground v.1.15,2013-07-20 19:46:00,
2013-07-20 15:52:00,77.2,72.0,29.78,SSW,199,3.0,-999.0,84,0.00,,,0.14,Wunderground v.1.15,2013-07-20 19:52:00,
2013-07-20 15:58:00,77.4,71.8,29.78,NW,306,2.0,-999.0,83,0.00,,,0.14,Wunderground v.1.15,2013-07-20 19:58:00,
2013-07-20 16:03:00,77.7,71.8,29.78,SW,221,1.0,-999.0,82,0.00,,,0.14,Wunderground v.1.15,2013-07-20 20:03:00,
2013-07-20 16:09:00,78.1,72.2,29.78,SW,219,1.0,-999.0,82,0.00,,,0.14,Wunderground v.1.15,2013-07-20 20:09:00,
2013-07-20 16:15:00,78.1,71.4,29.77,SW,219,1.0,-999.0,80,0.00,,,0.14,Wunderground v.1.15,2013-07-20 20:15:00,
2013-07-20 16:20:00,78.5,72.2,29.78,WNW,283,0.0,-999.0,81,0.00,,,0.14,Wunderground v.1.15,2013-07-20 20:20:00,
2013-07-20 16:26:00,79.1,72.0,29.78,WSW,238,1.0,-999.0,79,0.00,,,0.14,Wunderground v.1.15,2013-07-20 20:26:00,
2013-07-20 16:32:00,78.8,71.7,29.78,SW,232,1.0,-999.0,79,0.00,,,0.14,Wunderground v.1.15,2013-07-20 20:32:00,
2013-07-20 16:37:00,78.7,71.3,29.78,NW,306,1.0,-999.0,78,0.00,,,0.14,Wunderground v.1.15,2013-07-20 20:37:00,
2013-07-20 16:43:00,78.7,71.3,29.78,NW,306,0.0,-999.0,78,0.00,,,0.14,Wunderground v.1.15,2013-07-20 20:43:00,
2013-07-20 16:48:00,78.7,71.3,29.79,West,259,0.0,-999.0,78,0.00,,,0.14,Wunderground v.1.15,2013-07-20 20:48:00,
2013-07-20 16:53:00,78.4,71.0,29.79,SSW,198,1.0,-999.0,78,0.00,,,0.14,Wunderground v.1.15,2013-07-20 20:53:00,
2013-07-20 16:59:00,78.1,70.7,29.79,WSW,240,1.0,-999.0,78,0.00,,,0.14,Wunderground v.1.15,2013-07-20 20:59:00,
2013-07-20 17:05:00,78.3,71.2,29.79,South,173,1.0,-999.0,79,0.00,,,0.14,Wunderground v.1.15,2013-07-20 21:05:00,
2013-07-20 17:10:00,78.2,70.8,29.79,SSW,211,0.0,-999.0,78,0.00,,,0.14,Wunderground v.1.15,2013-07-20 21:10:00,
2013-07-20 17:17:00,78.2,71.2,29.79,SSW,211,0.0,-999.0,79,0.00,,,0.14,Wunderground v.1.15,2013-07-20 21:17:00,
2013-07-20 17:23:00,78.1,70.7,29.79,SW,221,0.0,-999.0,78,0.00,,,0.14,Wunderground v.1.15,2013-07-20 21:23:00,
2013-07-20 17:28:00,78.1,71.1,29.79,SW,221,0.0,-999.0,79,0.00,,,0.14,Wunderground v.1.15,2013-07-20 21:28:00,
2013-07-20 17:34:00,78.1,71.1,29.79,West,263,1.0,-999.0,79,0.00,,,0.14,Wunderground v.1.15,2013-07-20 21:34:00,
2013-07-20 17:41:00,77.9,70.5,29.79,SW,230,1.0,-999.0,78,0.00,,,0.14,Wunderground v.1.15,2013-07-20 21:41:00,
2013-07-20 17:47:00,77.9,70.5,29.79,WNW,288,0.0,-999.0,78,0.00,,,0.14,Wunderground v.1.15,2013-07-20 21:47:00,
2013-07-20 17:52:00,77.9,70.9,29.78,West,277,0.0,-999.0,79,0.00,,,0.14,Wunderground v.1.15,2013-07-20 21:52:00,
2013-07-20 17:58:00,77.8,70.4,29.78,West,277,0.0,-999.0,78,0.00,,,0.14,Wunderground v.1.15,2013-07-20 21:58:00,
2013-07-20 18:04:00,77.8,70.8,29.78,WSW,257,0.0,-999.0,79,0.00,,,0.14,Wunderground v.1.15,2013-07-20 22:04:00,
2013-07-20 18:10:00,77.7,71.0,29.78,WSW,256,0.0,-999.0,80,0.00,,,0.14,Wunderground v.1.15,2013-07-20 22:10:00,
2013-07-20 18:16:00,77.7,71.0,29.78,SSW,211,0.0,-999.0,80,0.00,,,0.14,Wunderground v.1.15,2013-07-20 22:16:00,
2013-07-20 18:22:00,77.6,70.9,29.78,SSW,205,1.0,-999.0,80,0.00,,,0.14,Wunderground v.1.15,2013-07-20 22:22:00,
2013-07-20 18:27:00,77.5,71.2,29.78,SSW,205,0.0,-999.0,81,0.00,,,0.14,Wunderground v.1.15,2013-07-20 22:27:00,
2013-07-20 18:33:00,77.4,71.1,29.77,SSW,205,0.0,-999.0,81,0.00,,,0.14,Wunderground v.1.15,2013-07-20 22:33:00,
2013-07-20 18:38:00,77.2,70.9,29.77,SSW,205,0.0,-999.0,81,0.00,,,0.14,Wunderground v.1.15,2013-07-20 22:38:00,
2013-07-20 18:44:00,77.2,71.3,29.78,SSW,205,1.0,-999.0,82,0.00,,,0.14,Wunderground v.1.15,2013-07-20 22:44:00,
2013-07-20 18:50:00,77.1,71.5,29.78,SSW,205,1.0,-999.0,83,0.00,,,0.14,Wunderground v.1.15,2013-07-20 22:50:00,
2013-07-20 18:56:00,76.9,71.3,29.79,SSW,205,1.0,-999.0,83,0.00,,,0.14,Wunderground v.1.15,2013-07-20 22:56:00,
2013-07-20 19:01:00,76.8,71.2,29.78,SSW,199,1.0,-999.0,83,0.00,,,0.14,Wunderground v.1.15,2013-07-20 23:01:00,
2013-07-20 19:07:00,76.6,71.0,29.78,South,189,2.0,-999.0,83,0.00,,,0.14,Wunderground v.1.15,2013-07-20 23:07:00,
2013-07-20 19:13:00,76.6,71.4,29.78,SSW,201,2.0,-999.0,84,0.00,,,0.14,Wunderground v.1.15,2013-07-20 23:13:00,
2013-07-20 19:19:00,76.4,70.9,29.78,SSW,201,2.0,-999.0,83,0.00,,,0.14,Wunderground v.1.15,2013-07-20 23:19:00,
2013-07-20 19:24:00,76.4,71.2,29.79,SSW,201,2.0,-999.0,84,0.00,,,0.14,Wunderground v.1.15,2013-07-20 23:24:00,
2013-07-20 19:29:00,76.4,71.2,29.79,SSW,201,1.0,-999.0,84,0.00,,,0.14,Wunderground v.1.15,2013-07-20 23:29:00,
2013-07-20 19:35:00,76.4,71.6,29.79,SSW,201,0.0,-999.0,85,0.00,,,0.14,Wunderground v.1.15,2013-07-20 23:35:00,
2013-07-20 19:40:00,76.3,71.5,29.79,SSW,201,1.0,-999.0,85,0.00,,,0.14,Wunderground v.1.15,2013-07-20 23:40:00,
2013-07-20 19:45:00,76.1,70.9,29.79,SSW,204,2.0,-999.0,84,0.00,,,0.14,Wunderground v.1.15,2013-07-20 23:45:00,
2013-07-20 19:52:00,76.0,71.2,29.79,SSW,204,1.0,-999.0,85,0.00,,,0.14,Wunderground v.1.15,2013-07-20 23:52:00,
2013-07-20 19:57:00,75.9,71.1,29.79,SSW,204,1.0,-999.0,85,0.00,,,0.14,Wunderground v.1.15,2013-07-20 23:57:00,
2013-07-20 20:03:00,75.8,71.3,29.79,SSW,204,0.0,-999.0,86,0.00,,,0.14,Wunderground v.1.15,2013-07-21 00:03:00,
2013-07-20 20:09:00,75.7,71.2,29.78,SSW,204,0.0,-999.0,86,0.00,,,0.14,Wunderground v.1.15,2013-07-21 00:09:00,
2013-07-20 20:14:00,75.6,71.5,29.78,NNE,22,0.0,-999.0,87,0.00,,,0.14,Wunderground v.1.15,2013-07-21 00:14:00,
2013-07-20 20:20:00,75.3,70.8,29.78,NNE,21,0.0,-999.0,86,0.00,,,0.14,Wunderground v.1.15,2013-07-21 00:20:00,
2013-07-20 20:26:00,75.1,71.0,29.79,NNE,21,0.0,-999.0,87,0.00,,,0.14,Wunderground v.1.15,2013-07-21 00:26:00,
2013-07-20 20:32:00,74.9,70.8,29.79,NNE,21,0.0,-999.0,87,0.00,,,0.14,Wunderground v.1.15,2013-07-21 00:32:00,
2013-07-20 20:38:00,74.8,70.7,29.79,NNE,21,0.0,-999.0,87,0.00,,,0.14,Wunderground v.1.15,2013-07-21 00:38:00,
2013-07-20 20:43:00,74.6,70.5,29.79,NNE,21,0.0,-999.0,87,0.00,,,0.14,Wunderground v.1.15,2013-07-21 00:43:00,
2013-07-20 20:49:00,74.4,70.6,29.79,NNE,22,0.0,-999.0,88,0.00,,,0.14,Wunderground v.1.15,2013-07-21 00:49:00,
2013-07-20 20:55:00,74.2,70.4,29.79,NNE,22,0.0,-999.0,88,0.00,,,0.14,Wunderground v.1.15,2013-07-21 00:55:00,
2013-07-20 21:01:00,74.0,70.6,29.79,NNE,22,0.0,-999.0,89,0.00,,,0.14,Wunderground v.1.15,2013-07-21 01:01:00,
2013-07-20 21:07:00,73.8,70.4,29.79,NNE,22,0.0,-999.0,89,0.00,,,0.14,Wunderground v.1.15,2013-07-21 01:07:00,
2013-07-20 21:13:00,73.7,70.3,29.80,NNE,22,0.0,-999.0,89,0.00,,,0.14,Wunderground v.1.15,2013-07-21 01:13:00,
2013-07-20 21:19:00,73.6,70.2,29.80,NNE,22,0.0,-999.0,89,0.00,,,0.14,Wunderground v.1.15,2013-07-21 01:19:00,
2013-07-20 21:25:00,73.5,70.4,29.80,NNE,22,0.0,-999.0,90,0.00,,,0.14,Wunderground v.1.15,2013-07-21 01:25:00,
2013-07-20 21:31:00,73.3,70.2,29.80,NNE,22,0.0,-999.0,90,0.00,,,0.14,Wunderground v.1.15,2013-07-21 01:31:00,
2013-07-20 21:37:00,73.1,70.0,29.80,NNE,22,0.0,-999.0,90,0.00,,,0.14,Wunderground v.1.15,2013-07-21 01:37:00,
2013-07-20 21:43:00,73.0,69.9,29.81,NNE,22,0.0,-999.0,90,0.00,,,0.14,Wunderground v.1.15,2013-07-21 01:43:00,
2013-07-20 21:49:00,72.8,70.0,29.81,NNE,22,0.0,-999.0,91,0.00,,,0.14,Wunderground v.1.15,2013-07-21 01:49:00,
2013-07-20 21:55:00,72.5,69.7,29.82,NNE,22,0.0,-999.0,91,0.00,,,0.14,Wunderground v.1.15,2013-07-21 01:55:00,
2013-07-20 22:01:00,72.4,69.6,29.82,NNE,22,0.0,-999.0,91,0.00,,,0.14,Wunderground v.1.15,2013-07-21 02:01:00,
2013-07-20 22:07:00,72.3,69.8,29.82,NNE,22,0.0,-999.0,92,0.00,,,0.14,Wunderground v.1.15,2013-07-21 02:07:00,
2013-07-20 22:13:00,72.2,69.7,29.82,NNE,22,0.0,-999.0,92,0.00,,,0.14,Wunderground v.1.15,2013-07-21 02:13:00,
2013-07-20 22:19:00,72.1,69.6,29.83,NNE,22,0.0,-999.0,92,0.00,,,0.14,Wunderground v.1.15,2013-07-21 02:19:00,
2013-07-20 22:24:00,72.0,69.5,29.83,NNE,22,0.0,-999.0,92,0.00,,,0.14,Wunderground v.1.15,2013-07-21 02:24:00,
2013-07-20 22:30:00,72.1,70.0,29.83,NNE,22,0.0,-999.0,93,0.00,,,0.14,Wunderground v.1.15,2013-07-21 02:30:00,
2013-07-20 22:36:00,72.1,70.0,29.83,NNE,28,0.0,-999.0,93,0.00,,,0.14,Wunderground v.1.15,2013-07-21 02:36:00,
2013-07-20 22:42:00,72.1,70.0,29.83,SSE,167,0.0,-999.0,93,0.00,,,0.14,Wunderground v.1.15,2013-07-21 02:42:00,
2013-07-20 22:48:00,72.1,70.0,29.83,South,169,1.0,-999.0,93,0.00,,,0.14,Wunderground v.1.15,2013-07-21 02:48:00,
2013-07-20 22:54:00,72.2,70.1,29.83,South,170,1.0,-999.0,93,0.00,,,0.14,Wunderground v.1.15,2013-07-21 02:54:00,
2013-07-20 23:00:00,72.2,70.1,29.83,South,170,0.0,-999.0,93,0.00,,,0.14,Wunderground v.1.15,2013-07-21 03:00:00,
2013-07-20 23:06:00,72.1,70.0,29.83,South,170,0.0,-999.0,93,0.00,,,0.14,Wunderground v.1.15,2013-07-21 03:06:00,
2013-07-20 23:11:00,72.1,70.0,29.83,South,170,0.0,-999.0,93,0.00,,,0.14,Wunderground v.1.15,2013-07-21 03:11:00,
2013-07-20 23:17:00,72.0,69.9,29.83,South,170,0.0,-999.0,93,0.00,,,0.14,Wunderground v.1.15,2013-07-21 03:17:00,
2013-07-20 23:22:00,71.9,69.8,29.83,South,170,0.0,-999.0,93,0.00,,,0.14,Wunderground v.1.15,2013-07-21 03:22:00,
2013-07-20 23:29:00,71.9,69.8,29.83,South,170,0.0,-999.0,93,0.00,,,0.14,Wunderground v.1.15,2013-07-21 03:29:00,
2013-07-20 23:34:00,71.8,69.7,29.83,South,170,0.0,-999.0,93,0.00,,,0.14,Wunderground v.1.15,2013-07-21 03:34:00,
2013-07-20 23:40:00,71.7,69.6,29.83,South,170,0.0,-999.0,93,0.00,,,0.14,Wunderground v.1.15,2013-07-21 03:40:00,
2013-07-20 23:46:00,71.5,69.4,29.83,South,170,0.0,-999.0,93,0.00,,,0.14,Wunderground v.1.15,2013-07-21 03:46:00,
2013-07-20 23:51:00,71.4,69.3,29.83,South,170,0.0,-999.0,93,0.00,,,0.14,Wunderground v.1.15,2013-07-21 03:51:00,
2013-07-20 23:57:00,71.2,69.1,29.83,South,170,0.0,-999.0,93,0.00,,,0.14,Wunderground v.1.15,2013-07-21 03:57:00,